Tiempo atmosférico en la estación meteorológica de Salamanca Aeropuerto, Salamanca (790 m.)



Fecha
DESCASC
Temp. máxima en grados centígrados (hora)
DESCASC
Temp. mínima en grados centígrados (hora)
DESCASC
Temp. media en grados centígrados
DESCASC
Racha de viento máxima en m/sg (hora)
DESCASC
Velocidad máxima media en intervalos de 10 minutos(hora)
DESCASC
Precipitaciones diarias en mm
DESCASC
Precipitaciones de 00:00 a 06:00 en mm
DESCASC
Precipitaciones de 06:00 a 12:00 en mm
DESCASC
Precipitaciones de 12:00 a 18:00 en mm
DESCASC
Precipitaciones de 18:00 a 24:00 en mm
DESCASC
05-04-2020 17.5 (12:30) 4.6 (06:50) 11 9.72 (14:20) 7.22 (14:20) 3.5 0 0 0 3.5
04-04-2020 19.8 (15:40) -0.4 (08:10) 9.7 10.83 (18:10) 7.5 (17:30) 0 0 0 0 0
03-04-2020 -- (--) -- (--) -- -- (--) -- (--) -- 0 0 0 --
02-04-2020 12.5 (15:50) 0.7 (00:00) 6.6 10.28 (16:40) 7.5 (16:40) 0.6 0 0 0 0.6
01-04-2020 13.9 (17:20) 2.2 (00:00) 8 7.22 (16:50) 4.17 (19:30) 0 0 0 0 0
31-03-2020 12.8 (17:50) -0.2 (00:00) 6.3 13.33 (10:10) 10 (10:20) 2.4 0 0 0.1 2.3
30-03-2020 8.4 (00:00) 2.4 (00:00) 5.4 15 (11:00) 11.39 (12:00) 0 0 0 0 0
29-03-2020 17.4 (16:50) -1.1 (-00:0) 8.1 9.72 (22:40) 7.5 (22:40) 0 0 0 0 0
28-03-2020 15.5 (15:10) -2.5 (-00:0) 6.5 10.28 (14:00) 6.94 (12:10) 0 0 0 0 0
27-03-2020 12.3 (17:50) -1.1 (-00:0) 5.6 10.83 (12:20) 7.78 (00:10) 0 0 0 0 0
26-03-2020 15.1 (16:10) -1.7 (-00:0) 6.7 9.72 (23:00) 7.5 (23:00) 0 0 0 0 0
25-03-2020 17.6 (14:40) 0.2 (00:00) 8.9 11.67 (16:10) 6.94 (23:40) 0.2 0 0 0.1 0.1
24-03-2020 16.7 (16:00) 2.4 (00:00) 9.6 9.72 (11:50) 6.39 (12:30) 0 0 0 0 0
23-03-2020 15.8 (15:00) 0.9 (00:00) 8.4 11.39 (16:00) 7.78 (16:00) 0.7 0 0 0.7 0
22-03-2020 13.7 (17:00) 4.6 (01:10) 9.1 11.67 (18:50) 7.22 (19:00) 0.4 0 0 0 0.4
21-03-2020 10 (13:50) 6.1 (00:00) 8 11.39 (01:20) 8.33 (01:20) 3.2 0 1 2.2 0
20-03-2020 14.4 (12:20) 5.7 (00:00) 10 8.89 (23:50) 6.67 (23:59) 0.2 0 0 0.2 0
19-03-2020 16.4 (13:00) 4.7 (00:00) 10.5 4.72 (00:20) 3.89 (00:20) 0 0 0 0 0
18-03-2020 16.9 (15:50) 4.9 (00:00) 10.9 9.17 (13:20) 7.22 (13:30) 0 0 0 0 0
17-03-2020 15.7 (17:00) 2.8 (00:00) 9.2 11.39 (17:20) 8.89 (17:20) 1.6 1.6 0 0 0
16-03-2020 4.7 (23:40) 0 (00:00) 2.3 18.61 (17:00) 13.33 (19:10) 23.9 1.3 6.6 8.7 7.3
15-03-2020 19.1 (13:40) -2.3 (-00:0) 8.4 17.5 (15:30) 12.22 (14:20) 0.4 0 0 0 0.4
14-03-2020 18.6 (16:40) -1.3 (-00:0) 8.7 7.22 (13:20) 4.17 (12:10) 0 0 0 0 0
13-03-2020 16.8 (15:40) 6.1 (23:59) 11.4 9.17 (10:00) 6.67 (09:40) 0 0 0 0 0
12-03-2020 24.1 (14:40) 5.9 (00:00) 15 10.83 (14:10) 7.5 (14:20) 0 0 0 0 0
11-03-2020 24.9 (16:00) 2.2 (00:00) 13.5 7.78 (14:10) 4.44 (14:10) 0 0 0 0 0
10-03-2020 22.8 (15:40) 1 (00:00) 11.9 9.17 (15:50) 6.11 (15:50) 0 0 0 0 0
09-03-2020 15.1 (16:30) -0.7 (-00:0) 7.2 6.67 (15:00) 4.72 (00:20) 0 0 0 0 0

Gráficas

Temp. máximas Temp. mínimas Temp. medias Precipitaciones Rachas de viento máximas Velocidades máximas media en intervalos de 10 minutos

Datos horarios

Fecha y hora oficial Temperatura (ºC) Velocidad del viento (km/h) Dirección del viento Racha (km/h) Dirección de racha Precipitación (mm) Presión (hPa) Tendencia (hPa) Humedad (%)
2020-04-07 23:00:00 12 0 Calma 17 Sur 0 931.4 1.5 87
2020-04-07 22:00:00 12.5 13 Sur 21 Sudoeste 0 930.9 1.6 87
2020-04-07 21:00:00 14.5 13 Sudoeste 24 Oeste 0 930 0.9 76
2020-04-07 20:00:00 17.2 23 Oeste 37 Oeste 0 929.9 0.8 66
2020-04-07 19:00:00 19.2 21 Oeste 32 Oeste 0 929.3 0 60
2020-04-07 18:00:00 20.1 15 Noroeste 37 Oeste 0 929.1 -0.5 58
2020-04-07 17:00:00 19.9 25 Oeste 37 Sudoeste 0 929.1 -0.9 59
2020-04-07 16:00:00 20.2 12 Oeste 24 Oeste 0 929.3 -1 57
2020-04-07 15:00:00 20.2 12 Sudoeste 21 Sudoeste 0 929.6 -1 56
2020-04-07 14:00:00 18.3 7 Norte 15 Este 0 930 -0.5 62
2020-04-07 13:00:00 17.2 2 Norte 13 Este 0 930.3 0 63
2020-04-07 12:00:00 16.4 7 Sudeste 15 Sudeste 0 930.6 0.4 63
2020-04-07 11:00:00 13.5 5 Sudeste 9 Sudeste 0 930.5 0.8 84
2020-04-07 10:00:00 10.6 0 Calma 9 Este 0 930.3 0.7 90
2020-04-07 09:00:00 7.2 5 Este 8 Este 0 930.2 0.6 99
2020-04-07 08:00:00 5.2 0 Calma 11 Sur 0 929.7 0.1 98
2020-04-07 07:00:00 6.3 6 Sudeste 9 Este 0 929.6 -0.2 98
2020-04-07 06:00:00 6.8 8 Este 11 Este 0 929.6 -0.7 97
2020-04-07 05:00:00 8.2 6 Este 8 Este 0 929.6 -0.4 97
2020-04-07 04:00:00 9.1 6 Este 11 Sur 0 929.8 0 95
2020-04-07 03:00:00 9.9 8 Sur 13 Sudeste 0 930.3 0.2 96
2020-04-07 02:00:00 10.2 10 Sudeste 13 Sudeste 0 930 -0.1 94
2020-04-07 01:00:00 10.8 8 Sudeste 15 Sudeste 0 929.8 -- 94
2020-04-07 00:00:00 10.9 10 Sudeste 15 Sudeste 0 930.1 1.1 95
2020-04-06 23:00:00 11 9 Este -- -- -- 930.1 1.3 91
2020-04-06 22:00:00 -- -- -- -- -- -- -- -- --
2020-04-06 21:00:00 11.7 0 Calma 9 Sudeste 0.1 929 0.4 88
2020-04-06 20:00:00 12.3 5 Oeste 11 Oeste 0.6 928.8 0.1 83
2020-04-06 19:00:00 12.8 7 Oeste 15 Sudoeste 0.1 928.4 -0.7 78
2020-04-06 18:00:00 13.1 15 Sudoeste 24 Oeste 0 928.6 -0.2 76
2020-04-06 17:00:00 13.2 11 Oeste 24 Oeste 0 928.7 -0.4 73
2020-04-06 16:00:00 13.1 16 Sudoeste 28 Sudoeste 0 929.1 0.4 74
2020-04-06 15:00:00 13.9 12 Oeste 28 Oeste 0 928.8 0.4 71
2020-04-06 14:00:00 13.1 21 Oeste 28 Oeste 0 929.1 1.1 74
2020-04-06 13:00:00 12.7 17 Oeste 22 Oeste 0 928.7 1.2 74
2020-04-06 12:00:00 12.6 10 Oeste 22 Oeste 0 928.4 1.8 82
2020-04-06 11:00:00 12.1 12 Oeste 18 Oeste 0 928 2.5 85
2020-04-06 10:00:00 11 13 Oeste 24 Oeste 0 927.5 2.4 92
2020-04-06 09:00:00 10.6 19 Oeste 28 Oeste 0 926.6 1.9 90
2020-04-06 08:00:00 9.8 9 Oeste 28 Oeste 0 925.5 1.2 91
2020-04-06 07:00:00 10.2 16 Oeste 26 Sudoeste 0 925.1 1.2 91
2020-04-06 06:00:00 11 21 Sudoeste 35 Sudoeste 0 924.7 0.8 90
2020-04-06 05:00:00 10.8 21 Sudoeste 37 Sur 0 924.3 0.4 90
2020-04-06 04:00:00 11.5 28 Sudoeste 41 Sudoeste 0 923.9 -0.3 90
2020-04-06 03:00:00 12 32 Sudoeste 42 Sudoeste 0 923.9 -0.3 89
2020-04-06 02:00:00 11.7 11 Sur 24 Sur 0 923.9 -0.2 91
2020-04-06 01:00:00 11.7 18 Sur 30 Sur 0 924.2 0.3 92
2020-04-06 00:00:00 12 16 Sur 32 Sudoeste 0.2 924.2 1.1 91
2020-04-05 23:00:00 12.1 11 Sur 21 Sur 0.9 924.1 1.6 92
2020-04-05 22:00:00 12 7 Sudoeste 24 Oeste 2.2 923.9 1.6 92
2020-04-05 21:00:00 12.8 13 Sudoeste 21 Sudoeste 0.2 923.1 0.9 84
2020-04-05 20:00:00 14.3 12 Sudoeste 17 Sur 0 922.5 -0.2 70
2020-04-05 19:00:00 14.7 12 Sur 28 Sur 0 922.3 -0.6 69
2020-04-05 18:00:00 15.2 22 Sur 32 Sur 0 922.2 -0.8 66
2020-04-05 17:00:00 15.1 23 Sudoeste 35 Sudoeste 0 922.7 -0.6 68
2020-04-05 16:00:00 16 21 Sudoeste 35 Sudoeste 0 922.9 -0.6 60
2020-04-05 15:00:00 16.1 16 Sudoeste 35 Sudoeste 0 923 -0.6 57
2020-04-05 14:00:00 16.4 21 Sudoeste 33 Oeste 0 923.3 -0.3 55
2020-04-05 13:00:00 16.6 19 Sudoeste 30 Sudoeste 0 923.5 -0.3 55
2020-04-05 12:00:00 15.9 19 Sudoeste 30 Sudoeste 0 923.6 0 56
2020-04-05 11:00:00 13.8 15 Sur 22 Sur 0 923.6 0.3 61
2020-04-05 10:00:00 10.5 13 Sudoeste 18 Sur 0 923.8 1.2 76
2020-04-05 09:00:00 7 7 Sur 9 Sur 0 923.6 0.9 87
2020-04-05 08:00:00 5 0 Calma 15 Sudeste 0 923.3 0.6 89
2020-04-05 07:00:00 4.7 7 Sur 13 Este 0 922.6 -0.3 89
2020-04-05 06:00:00 5 5 Sudeste 13 Sudeste 0 922.7 -0.2 87
2020-04-05 05:00:00 5.7 0 Calma 11 Sudeste 0 922.7 -0.3 83
2020-04-05 04:00:00 9.1 10 Sur 17 Sur 0 922.9 0.1 75
2020-04-05 03:00:00 7.2 9 Este 17 Sudoeste 0 922.9 0.2 77
2020-04-05 02:00:00 9.2 15 Sudoeste 26 Oeste 0 923 0.4 75
2020-04-05 01:00:00 10.7 15 Oeste 26 Sudoeste 0 922.8 0.6 69
2020-04-05 00:00:00 10.7 12 Sudoeste 17 Sudoeste 0 922.7 0.8 66
2020-04-04 23:00:00 11.8 8 Sur 15 Sur 0 922.6 1 63
2020-04-04 22:00:00 12.7 12 Sur 18 Sur 0 922.2 1 57
2020-04-04 21:00:00 13.5 10 Sur 32 Sur 0 921.9 0.8 53
2020-04-04 20:00:00 15 22 Sur 33 Sur 0 921.6 0.6 45
2020-04-04 19:00:00 15.8 25 Sur 39 Sur 0 921.2 0.2 40
2020-04-04 18:00:00 16.5 24 Sudoeste 37 Sur 0 921.1 -0.2 37
2020-04-04 17:00:00 18.4 23 Sur 35 Sur 0 921 -0.8 33
2020-04-04 16:00:00 18.8 26 Sur 37 Sur 0 921 -1.6 33
2020-04-04 15:00:00 18.7 21 Sur 32 Sur 0 921.3 -1.7 37
2020-04-04 14:00:00 17.4 9 Sudoeste 18 Sudoeste 0 921.8 -1.1 42
2020-04-04 13:00:00 16.6 7 Sudoeste 15 Sudoeste 0 922.6 -0.3 42
2020-04-04 12:00:00 14.2 5 Sur 13 Sur 0 923 0.2 51
2020-04-04 11:00:00 10.9 5 Sudeste 11 Sudeste 0 922.9 0.3 63
2020-04-04 10:00:00 6.3 0 Calma -- -- 0 922.9 0.4 77
2020-04-04 09:00:00 0.8 0 Calma -- -- 0 922.8 0.1 91
2020-04-04 08:00:00 0.1 0 Calma 9 Este 0 922.6 -0.5 92
2020-04-04 07:00:00 -0.2 8 Sudeste 9 Sudeste 0 922.5 -0.9 92
2020-04-04 06:00:00 0.6 4 Este 9 Este 0 922.7 -1.1 92
2020-04-04 05:00:00 1.3 4 Sudeste 8 Sur 0 923.1 -1.1 92
2020-04-04 04:00:00 1.3 4 Sur 9 Sur 0 923.4 -1.1 91
2020-04-04 03:00:00 2.7 2 Nordeste -- -- 0 923.8 -0.8 91
2020-04-04 02:00:00 3 4 Este -- -- 0 924.2 -0.1 86
2020-04-04 01:00:00 5 0 Calma 9 Sur 0 924.5 0.5 78
2020-04-04 00:00:00 5.6 9 Sur 11 Sur 0 924.6 -- 77
2020-04-03 23:00:00 7.3 8 Este 11 Este 0 924.3 -- 68
2020-04-03 22:00:00 8.7 9 Este -- -- -- 924 -- 65
2020-04-03 21:00:00 -- -- -- -- -- -- -- -- --
2020-04-03 20:00:00 -- -- -- -- -- -- -- -- --
2020-04-03 19:00:00 -- -- -- -- -- -- -- -- --
2020-04-03 18:00:00 15.4 5 Nordeste 17 Sudeste 0 923.4 -1.7 39
2020-04-03 17:00:00 15.4 9 Este 26 Este 0 923.9 -1.6 42
2020-04-03 16:00:00 14.8 12 Sudeste 28 Este 0 924.4 -1.9 46
2020-04-03 15:00:00 14.2 8 Este 21 Este 0 925.1 -1.2 49
2020-04-03 14:00:00 12.8 9 Este 24 Este 0 925.5 -0.8 50
2020-04-03 13:00:00 11.6 6 Este 18 Nordeste 0 926.3 0.3 55
2020-04-03 12:00:00 9.1 7 Nordeste 15 Este 0 926.3 0.4 69
2020-04-03 11:00:00 6.9 9 Este 22 Sudeste 0 926.3 0.8 79
2020-04-03 10:00:00 4.2 14 Este 21 Este 0 926 0.8 85
2020-04-03 09:00:00 1.2 11 Este 15 Este 0 925.9 0.9 91
2020-04-03 08:00:00 0 10 Este 15 Este 0 925.5 0.6 94
2020-04-03 07:00:00 0.5 8 Este 11 Este 0 925.2 0.2 94
2020-04-03 06:00:00 0.8 9 Este 11 Este 0 925 -0.3 93
2020-04-03 05:00:00 1.6 8 Este 15 Este 0 924.9 -0.5 93
2020-04-03 04:00:00 1.2 8 Sudeste 21 Este 0 925 -0.4 94
2020-04-03 03:00:00 2.5 10 Este 15 Este 0 925.3 0.1 94
2020-04-03 02:00:00 2.2 6 Nordeste 9 Nordeste 0 925.4 0.6 96
2020-04-03 01:00:00 3.2 0 Calma 4 Sudeste 0 925.4 1.1 95
2020-04-03 00:00:00 4.6 5 Sudeste 9 Este 0 925.2 1.6 93
2020-04-02 23:00:00 6.4 8 Este -- -- 0 924.8 1.5 92
2020-04-02 22:00:00 7.7 -- -- -- -- 0 924.3 1.4 93
2020-04-02 21:00:00 8.5 0 Calma 11 Sudeste 0 923.6 1.1 89
2020-04-02 20:00:00 9.7 9 Sudeste 30 Este 0.6 923.3 1 85
2020-04-02 19:00:00 11 9 Este 32 Este 0 922.9 0.7 71
2020-04-02 18:00:00 11.5 22 Nordeste 35 Nordeste 0 922.5 0.1 67
2020-04-02 17:00:00 10.7 21 Este 37 Nordeste 0 922.3 -0.2 70
2020-04-02 16:00:00 11.2 23 Nordeste 33 Nordeste 0 922.2 -0.4 69
2020-04-02 15:00:00 10.7 21 Nordeste 32 Nordeste 0 922.4 0.2 73
2020-04-02 14:00:00 9.4 20 Nordeste 33 Nordeste 0 922.5 0.7 80
2020-04-02 13:00:00 8 21 Nordeste 30 Nordeste 0 922.6 1.3 89
2020-04-02 12:00:00 8.1 10 Nordeste 17 Nordeste 0 922.2 1.4 90
2020-04-02 11:00:00 6.6 0 Calma 2 Este 0 921.8 1.5 94
2020-04-02 10:00:00 5.7 0 Calma -- -- 0 921.3 1.4 94
2020-04-02 09:00:00 4.8 0 Calma 8 Sur 0 920.8 1.1 95
2020-04-02 08:00:00 4.2 8 Sur 9 Sur 0 920.3 0.5 96
2020-04-02 07:00:00 3.4 7 Sur 9 Sur 0 919.9 -0.3 96
2020-04-02 06:00:00 1.9 7 Oeste 9 Oeste 0 919.7 -0.8 96
2020-04-02 05:00:00 1.4 0 Calma -- -- 0 919.8 -0.7 96
2020-04-02 04:00:00 2 0 Calma 5 Noroeste 0 920.2 -0.5 94
2020-04-02 03:00:00 2.3 0 Calma 8 Sur 0 920.5 -0.2 94
2020-04-02 02:00:00 4 6 Sudeste 13 Sur 0 920.5 0.1 91
2020-04-02 01:00:00 4.5 9 Nordeste 15 Nordeste 0 920.7 0.7 89
2020-04-02 00:00:00 5.3 12 Norte 18 Nordeste 0 920.7 1.5 89
2020-04-01 23:00:00 6.4 10 Norte 17 Norte 0 920.4 1.4 81
2020-04-01 22:00:00 5.9 9 Oeste 17 Oeste 0 920 1.4 75
2020-04-01 21:00:00 8.5 12 Oeste 18 Oeste 0 919.2 0.6 64
2020-04-01 20:00:00 12.3 12 Oeste 26 Oeste 0 919 0.4 46
2020-04-01 19:00:00 13.1 12 Sudoeste 26 Oeste 0 918.6 -0.3 43
2020-04-01 18:00:00 13.6 11 Oeste 24 Oeste 0 918.6 -0.7 49
2020-04-01 17:00:00 13.5 10 Oeste 26 Oeste 0 918.6 -0.9 52
2020-04-01 16:00:00 11.9 13 Oeste 21 Oeste 0 918.9 -0.9 60
2020-04-01 15:00:00 10.6 7 Oeste 17 Noroeste 0 919.3 -0.7 63
2020-04-01 14:00:00 10.8 4 Norte 15 Norte 0 919.5 -0.7 70
2020-04-01 13:00:00 9.1 4 Este 13 Este 0 919.8 0 74
2020-04-01 12:00:00 7.6 8 Este 13 Nordeste 0 920 0.9 82
2020-04-01 11:00:00 5.2 3 Oeste 17 Sudoeste 0 920.2 1.5 89
2020-04-01 10:00:00 4.5 12 Sudoeste 17 Sudoeste 0 919.8 1.4 92
2020-04-01 09:00:00 2.9 8 Sudoeste 11 Sudoeste 0 919.1 1 95
2020-04-01 08:00:00 2.6 5 Sur 13 Sur 0 918.7 0.9 91
2020-04-01 07:00:00 4.5 5 Sudoeste 8 Sudoeste 0 918.4 0.6 96
2020-04-01 06:00:00 3.8 0 Calma 5 Sur 0 918.1 0.3 97
2020-04-01 05:00:00 2.8 3 Oeste 8 Oeste 0 917.8 0.8 96
2020-04-01 04:00:00 3.8 0 Calma 9 Oeste 0 917.8 1.2 94
2020-04-01 03:00:00 3.8 6 Oeste 11 Sudoeste 0 917.8 1.5 97
2020-04-01 02:00:00 4.9 0 Calma 8 Este 0 917 1.1 94
2020-04-01 01:00:00 -- 8 Este 9 Este 0 916.6 1.4 --
2020-04-01 00:00:00 5.8 9 Este -- -- 0 916.3 2 92
2020-03-31 23:00:00 6.4 9 Este 17 Sudeste 0 915.9 2 89
2020-03-31 22:00:00 7.4 11 Sudeste 17 Sudeste 0 915.2 1.9 87
2020-03-31 21:00:00 8.5 6 Sudeste 15 Sur 0 914.3 1.4 91
2020-03-31 20:00:00 8.9 11 Norte 24 Norte 2.2 913.9 1 89
2020-03-31 19:00:00 10.4 16 Nordeste 28 Este 0.1 913.3 0.1 79
2020-03-31 18:00:00 12.2 16 Este 30 Este 0 912.9 -0.5 61
2020-03-31 17:00:00 12 23 Este 35 Este 0 912.9 -0.3 62
2020-03-31 16:00:00 8.9 25 Este 39 Este 0 913.2 -0.1 77
2020-03-31 15:00:00 7.3 28 Este 45 Sudeste 0.1 913.4 -0.1 79
2020-03-31 14:00:00 8.4 35 Este 46 Este 0 913.2 -0.2 64
2020-03-31 13:00:00 6.2 31 Este 42 Este 0 913.3 -0.3 78
2020-03-31 12:00:00 5.6 30 Este 45 Este 0 913.5 -0.7 74
2020-03-31 11:00:00 2.7 32 Este 48 Este 0 913.4 -0.6 79
2020-03-31 10:00:00 1 33 Este 46 Este 0 913.6 -0.4 85
2020-03-31 09:00:00 -0.1 27 Nordeste 41 Nordeste 0 914.2 -0.6 89
2020-03-31 08:00:00 -0.1 31 Este 42 Este 0 914 -1.3 89
2020-03-31 07:00:00 0.2 29 Este 42 Este 0 914 -2.4 91
2020-03-31 06:00:00 0.3 27 Este 41 Este 0 914.8 -2.7 91
2020-03-31 05:00:00 0.2 27 Este 39 Este 0 915.3 -2.9 91
2020-03-31 04:00:00 0.1 23 Este 35 Este 0 916.4 -2.9 89
2020-03-31 03:00:00 -0.1 25 Este 41 Este 0 917.5 -2.2 90
2020-03-31 02:00:00 1.3 31 Este 45 Este 0 918.2 -1.8 70
2020-03-31 01:00:00 1.6 30 Este 46 Este 0 919.3 -1.1 64
2020-03-31 00:00:00 2.5 26 Este 41 Este 0 919.7 -0.4 56
2020-03-30 23:00:00 2.8 29 Este 42 Este 0 920 -0.2 56
2020-03-30 22:00:00 3.1 30 Este 48 Este 0 920.4 -0.1 54
2020-03-30 21:00:00 3.5 29 Este 41 Este 0 920.1 -0.9 54
2020-03-30 20:00:00 3.5 31 Este 45 Nordeste 0 920.2 -1.5 57
2020-03-30 19:00:00 4.4 28 Este 42 Este 0 920.5 -1.7 48
2020-03-30 18:00:00 4.5 30 Nordeste 41 Este 0 921 -1.8 50
2020-03-30 17:00:00 4.3 27 Este 46 Nordeste 0 921.7 -1.8 49
2020-03-30 16:00:00 4.1 31 Este 42 Este 0 922.2 -1.6 50
2020-03-30 15:00:00 4.2 34 Este 50 Nordeste 0 922.8 -1.8 51
2020-03-30 14:00:00 6.1 37 Este 54 Este 0 923.5 -1.3 47
2020-03-30 13:00:00 5.5 39 Este 50 Este 0 923.8 -0.9 49
2020-03-30 12:00:00 3.8 41 Este 54 Este 0 924.6 -0.1 54
2020-03-30 11:00:00 3.1 39 Este 54 Este 0 924.8 0.6 62
2020-03-30 10:00:00 2.6 32 Este 46 Este 0 924.7 0.5 65
2020-03-30 09:00:00 2.5 29 Este 50 Este 0 924.7 0.4 72
2020-03-30 08:00:00 3 29 Este 46 Este 0 924.2 -0.4 76
2020-03-30 07:00:00 3.7 28 Este 42 Este 0 924.2 -0.4 75
2020-03-30 06:00:00 4.1 26 Este 46 Este 0 924.3 -0.6 74
2020-03-30 05:00:00 5.2 24 Este 39 Este 0 924.6 -0.7 77
2020-03-30 04:00:00 5.1 18 Este 28 Este 0 924.6 -0.6 80
2020-03-30 03:00:00 5.7 21 Este 30 Este 0 924.9 0 77
2020-03-30 02:00:00 6.2 14 Nordeste 30 Este 0 925.3 0.7 75
2020-03-30 01:00:00 7.3 21 Este 30 Este 0 925.2 1.1 68
2020-03-30 00:00:00 8.4 17 Este 32 Este 0 924.9 0.9 63
2020-03-29 23:00:00 9.6 23 Este 35 Este 0 924.6 0.5 57
2020-03-29 22:00:00 9.9 8 Nordeste 13 Nordeste 0 924.1 0 57
2020-03-29 21:00:00 11.7 9 Nordeste 13 Nordeste 0 924 -0.2 51
2020-03-29 20:00:00 14.3 8 Nordeste 18 Nordeste 0 924.1 -0.6 43
2020-03-29 19:00:00 16.3 8 Norte 21 Nordeste 0 924.1 -1.1 38
2020-03-29 18:00:00 16.9 8 Norte 18 Nordeste 0 924.2 -1.6 37
2020-03-29 17:00:00 17 8 Noroeste 22 Norte 0 924.7 -1.7 38
2020-03-29 16:00:00 16 8 Nordeste 24 Este 0 925.2 -1.7 40
2020-03-29 15:00:00 15.5 8 Noroeste 26 Este 0 925.8 -1.6 42
2020-03-29 14:00:00 15.3 6 Norte 17 Nordeste 0 926.4 -1.1 45
2020-03-29 13:00:00 13.6 4 Noroeste 11 Norte 0 926.9 -0.6 50
2020-03-29 12:00:00 10.8 0 Calma 9 Oeste 0 927.4 0 58
2020-03-29 11:00:00 8.9 0 Calma 8 Este 0 927.5 0.6 66
2020-03-29 10:00:00 4.7 0 Calma 9 Este 0 927.5 0.7 83
2020-03-29 09:00:00 0.5 8 Este 9 Este 0 927.4 0.6 93
2020-03-29 08:00:00 -0.8 0 Calma 4 Este 0 926.9 0 94
2020-03-29 07:00:00 -0.5 0 Calma 8 Sudoeste 0 926.8 -0.2 90
2020-03-29 06:00:00 0.1 0 Calma 4 Sur 0 926.8 -0.5 92
2020-03-29 05:00:00 0.5 0 Calma 2 Oeste 0 926.9 -0.4 91
2020-03-29 03:00:00 1.9 0 Calma 2 Sur 0 927.3 0.2 85
2020-03-29 01:00:00 2.7 0 Calma 8 Este 0 927.3 0.5 83
2020-03-29 00:00:00 2.7 5 Este 9 Este 0 927.3 1.1 82
2020-03-28 23:00:00 4.9 8 Sur 18 Sur 0 927.1 1.5 73
2020-03-28 22:00:00 6.8 0 Calma 11 Norte 0 926.8 1.7 61
2020-03-28 21:00:00 7.8 10 Norte 15 Norte 0 926.2 1.5 58
2020-03-28 20:00:00 9.1 11 Norte 13 Norte 0 925.6 1.1 57
2020-03-28 19:00:00 12.4 10 Nordeste 18 Nordeste 0 925.1 0.6 45
2020-03-28 18:00:00 14.6 11 Este 21 Este 0 924.7 -0.2 40
2020-03-28 17:00:00 14.8 11 Este 28 Este 0 924.5 -0.8 39
2020-03-28 16:00:00 15.3 14 Este 32 Este 0 924.5 -1.1 37
2020-03-28 15:00:00 14.9 16 Este 32 Este 0 924.9 -1 37
2020-03-28 14:00:00 13.8 18 Este 37 Nordeste 0 925.3 -0.7 41
2020-03-28 13:00:00 12.9 20 Este 35 Este 0 925.6 -0.4 42
2020-03-28 12:00:00 12.1 21 Este 33 Este 0 925.9 0.4 45
2020-03-28 11:00:00 10.6 20 Este 28 Nordeste 0 926 1 53
2020-03-28 10:00:00 7.7 11 Este 15 Este 0 926 1.5 66
2020-03-28 09:00:00 1.9 0 Calma 8 Sudoeste 0 925.5 1.3 88
2020-03-28 08:00:00 -1.2 0 Calma 8 Nordeste 0 925 1.1 93
2020-03-28 07:00:00 -2.3 4 Nordeste 5 Nordeste 0 924.5 0.7 93
2020-03-28 06:00:00 -2 0 Calma 4 Sur 0 924.2 0.4 91
2020-03-28 05:00:00 -2 0 Calma 5 Sur 0 923.9 -- 91
2020-03-28 04:00:00 -0.9 0 Calma 5 Este 0 923.8 0.5 91
2020-03-28 03:00:00 -0.5 0 Calma -- -- 0 923.8 0.6 90
2020-03-28 02:00:00 0.5 0 Calma -- -- 0 -- -- 87
2020-03-28 01:00:00 1 0 Calma 5 Este 0 923.3 0.9 83
2020-03-28 00:00:00 1.7 4 Este 5 Este 0 923.2 1.4 78
2020-03-27 23:00:00 2.1 2 Nordeste 8 Nordeste 0 922.8 1.9 74
2020-03-27 22:00:00 2.5 5 Este 15 Sur 0 922.4 2 73
2020-03-27 21:00:00 4.9 12 Sur 18 Sudeste 0 921.8 2 65
2020-03-27 20:00:00 6.7 13 Sudeste 24 Sudeste 0 920.9 1.5 57
2020-03-27 19:00:00 10.3 15 Sudeste 32 Sudeste 0 920.4 0.9 41
2020-03-27 18:00:00 11.3 16 Sudeste 33 Sudeste 0 919.8 0.2 38
2020-03-27 17:00:00 12 14 Este 30 Sudeste 0 919.4 -0.4 38
2020-03-27 16:00:00 10.8 21 Este 35 Este 0 919.5 -0.5 40
2020-03-27 15:00:00 11.1 14 Este 35 Este 0 919.6 -0.6 42
2020-03-27 14:00:00 10.4 17 Este 35 Este 0 919.8 -0.4 43
2020-03-27 13:00:00 9.4 16 Este 39 Nordeste 0 920 0 47
2020-03-27 12:00:00 7.8 24 Nordeste 37 Este 0 920.2 0.4 47
2020-03-27 11:00:00 6.1 21 Nordeste 32 Nordeste 0 920.2 0.9 57
2020-03-27 10:00:00 3.6 19 Este 33 Este 0 920 0.9 65
2020-03-27 09:00:00 1.6 22 Nordeste 30 Este 0 919.8 0.7 70
2020-03-27 08:00:00 -0.2 16 Nordeste 22 Este 0 919.3 0.5 79
2020-03-27 07:00:00 -0.5 13 Nordeste 28 Nordeste 0 919.1 0.1 78
2020-03-27 06:00:00 0.7 15 Este 28 Nordeste 0 919.1 0 72
2020-03-27 05:00:00 0.8 16 Este 26 Nordeste 0 918.8 -0.5 75
2020-03-27 04:00:00 1 14 Nordeste 21 Este 0 919 0 77
2020-03-27 03:00:00 1.3 13 Este 28 Este 0 919.1 0.3 80
2020-03-27 02:00:00 2.2 18 Este 30 Este 0 919.3 0.6 79
2020-03-27 01:00:00 3.1 23 Este 37 Este 0 919 0.9 77
2020-03-27 00:00:00 4 27 Este 35 Este 0 918.8 0.9 74
2020-03-26 23:00:00 5.2 27 Este 35 Este 0 918.7 0.8 71
2020-03-26 22:00:00 5.6 18 Este 26 Este 0 918.1 0.3 70
2020-03-26 21:00:00 6.8 9 Este 13 Sudeste 0 917.9 0.1 65
2020-03-26 20:00:00 8.8 11 Sudeste 18 Este 0 917.9 0 56
2020-03-26 19:00:00 12.3 11 Nordeste 18 Nordeste 0 917.8 -0.5 34
2020-03-26 18:00:00 13.9 10 Norte 24 Este 0 917.8 -1.2 32
2020-03-26 17:00:00 14.2 7 Este 22 Nordeste 0 917.9 -1.6 33
2020-03-26 16:00:00 14.6 2 Sudeste 18 Norte 0 918.3 -1.6 35
2020-03-26 15:00:00 13.6 12 Nordeste 24 Norte 0 919 -1.3 39
2020-03-26 14:00:00 12.6 10 Norte 18 Norte 0 919.5 -1.3 39
2020-03-26 13:00:00 12 4 Nordeste 18 Norte 0 919.9 -1.1 43
2020-03-26 12:00:00 10.5 7 Nordeste 15 Este 0 920.3 -0.9 44
2020-03-26 11:00:00 9.6 10 Este 17 Este 0 920.8 -0.4 46
2020-03-26 10:00:00 5.5 2 Este 9 Sudoeste 0 921 0 83
2020-03-26 09:00:00 1.2 4 Sudeste 13 Este 0 921.2 0.3 98
2020-03-26 08:00:00 -0.4 9 Este 13 Este 0 921.2 0.4 98
2020-03-26 07:00:00 -1.6 2 Este 8 Este 0 921 -0.3 94
2020-03-26 06:00:00 -0.2 0 Calma 8 Sur 0 920.9 -0.7 94
2020-03-26 05:00:00 1 0 Calma 9 Noroeste 0 920.8 -1 89
2020-03-26 04:00:00 1.1 0 Calma 11 Oeste 0 921.3 -0.4 89
2020-03-26 03:00:00 2.8 4 Oeste 11 Oeste 0 921.6 0.5 84
2020-03-26 02:00:00 4.8 3 Noroeste 26 Nordeste 0 921.8 0.8 82
2020-03-26 01:00:00 6.6 19 Norte 33 Nordeste 0 921.7 0.5 73
2020-03-26 00:00:00 7.3 20 Norte 35 Norte 0 921.1 -0.3 67
2020-03-25 23:00:00 8.9 13 Oeste 22 Oeste 0 921 -0.3 87
2020-03-25 22:00:00 8.5 13 Sudoeste 18 Sudoeste 0 921.2 -0.3 86
2020-03-25 21:00:00 10.2 11 Oeste 18 Sudoeste 0.1 921.4 -0.2 85
2020-03-25 20:00:00 10.4 15 Sudoeste 22 Oeste 0 921.3 -0.6 78
2020-03-25 19:00:00 11.1 16 Sudoeste 28 Oeste 0 921.5 -0.8 73
2020-03-25 18:00:00 13.4 22 Oeste 30 Oeste 0 921.6 -0.9 66
2020-03-25 17:00:00 14.2 21 Oeste 42 Noroeste 0.1 921.9 -1.1 61
2020-03-25 16:00:00 15.3 21 Noroeste 35 Noroeste 0 922.3 -1.4 51
2020-03-25 15:00:00 16.8 15 Norte 32 Norte 0 922.5 -1.7 46
2020-03-25 14:00:00 16.6 18 Noroeste 30 Noroeste 0 923 -1.5 53
2020-03-25 13:00:00 15 15 Oeste 28 Noroeste 0 923.7 -1 58
2020-03-25 12:00:00 13.7 10 Oeste 21 Oeste 0 924.2 -0.4 58
2020-03-25 11:00:00 10.5 5 Noroeste 9 Noroeste 0 924.5 0 82
2020-03-25 10:00:00 6.7 0 Calma -- -- 0 924.7 0.5 92
2020-03-25 09:00:00 3.8 0 Calma -- -- 0 924.6 0.3 96
2020-03-25 08:00:00 0.5 0 Calma 11 Sudoeste 0 924.5 0.4 97
2020-03-25 07:00:00 0.5 10 Sudoeste 11 Sudoeste 0 924.2 0.1 97
2020-03-25 06:00:00 1.6 0 Calma 9 Este 0 924.3 0 97
2020-03-25 05:00:00 1.7 0 Calma 9 Sur 0 924.1 -0.2 95
2020-03-25 04:00:00 2.5 0 Calma 8 Oeste 0 924.1 -0.2 94
2020-03-25 03:00:00 3.1 8 Oeste 9 Oeste 0 924.3 0.1 95
2020-03-25 02:00:00 3.7 0 Calma 5 Sudoeste 0 924.3 0.1 94
2020-03-25 01:00:00 4.7 0 Calma 11 Este 0 924.3 0.4 89
2020-03-25 00:00:00 6.2 10 Este 13 Este 0 924.2 0.6 85
2020-03-24 23:00:00 7.5 11 Este 17 Este 0 924.2 0.9 81
2020-03-24 22:00:00 9.1 13 Este 28 Nordeste 0 923.9 0.9 73
2020-03-24 21:00:00 10.4 17 Nordeste 26 Nordeste 0 923.6 0.8 69
2020-03-24 20:00:00 11.4 11 Nordeste 15 Nordeste 0 923.3 0.5 71
2020-03-24 19:00:00 13.5 9 Nordeste 24 Nordeste 0 923 0.1 61
2020-03-24 18:00:00 13.8 12 Nordeste 26 Nordeste 0 922.8 -0.4 55
2020-03-24 17:00:00 15.4 18 Nordeste 30 Este 0 922.8 -0.8 52
2020-03-24 16:00:00 16.5 17 Este 33 Este 0 922.9 -1.1 48
2020-03-24 15:00:00 15.5 20 Nordeste 32 Este 0 923.2 -1.2 54
2020-03-24 14:00:00 15.6 20 Este 30 Nordeste 0 923.6 -0.9 55
2020-03-24 13:00:00 14.8 19 Este 35 Este 0 924 -0.8 57
2020-03-24 12:00:00 13.6 21 Este 35 Este 0 924.4 -0.2 63
2020-03-24 11:00:00 11.8 22 Este 30 Este 0 924.5 0.1 68
2020-03-24 10:00:00 8.9 15 Este 30 Este 0 924.8 0.8 82
2020-03-24 09:00:00 6.7 16 Este 28 Este 0 924.6 0.7 89
2020-03-24 08:00:00 3.9 12 Este 22 Este 0 924.4 0.6 95
2020-03-24 07:00:00 3.8 11 Este 18 Este 0 924 0.2 93
2020-03-24 06:00:00 4.5 15 Este 22 Este 0 923.9 0 90
2020-03-24 05:00:00 5.5 14 Este 21 Este 0 923.8 -0.2 86
2020-03-24 04:00:00 5.3 15 Este 21 Este 0 923.8 -0.3 87
2020-03-24 03:00:00 5.3 18 Este 26 Este 0 923.9 -0.1 87
2020-03-24 02:00:00 4.7 11 Este 15 Este 0 924 0.1 87
2020-03-24 01:00:00 5.5 13 Este 18 Sudeste 0 924.1 0.5 86
2020-03-24 00:00:00 7 15 Este 30 Sudeste 0 924 0.8 81
2020-03-23 23:00:00 7.3 19 Sudeste 28 Sudeste 0 923.9 1.4 81
2020-03-23 22:00:00 7.8 8 Este 13 Sudeste 0 923.6 1.2 81
2020-03-23 21:00:00 8 11 Sudeste 21 Sur 0 923.2 1.2 84
2020-03-23 20:00:00 9.4 10 Nordeste 18 Este 0 922.5 0.4 78
2020-03-23 19:00:00 13.3 12 Este 28 Este 0 922.4 -0.2 59
2020-03-23 18:00:00 13.8 17 Este 26 Sudeste 0 922 -0.4 59
2020-03-23 17:00:00 12.3 13 Sudeste 35 Sudeste 0.1 922.1 -0.8 72
2020-03-23 16:00:00 12.1 28 Sudeste 41 Sudeste 0.6 922.6 -1 70
2020-03-23 15:00:00 15 18 Este 33 Este 0 922.4 -1.6 55
2020-03-23 14:00:00 13.9 21 Este 37 Este 0 922.9 -1 60
2020-03-23 13:00:00 13 17 Este 26 Este 0 923.6 -0.2 66
2020-03-23 12:00:00 12.2 15 Este 22 Este 0 924 0.4 68
2020-03-23 11:00:00 10.2 14 Este 24 Este 0 923.9 0.6 82
2020-03-23 10:00:00 7.7 19 Este 26 Este 0 923.8 1.2 91
2020-03-23 09:00:00 4.8 11 Nordeste 15 Nordeste 0 923.6 1.2 99
2020-03-23 08:00:00 2.7 5 Sudeste 11 Este 0 923.3 1.4 99
2020-03-23 07:00:00 2.6 0 Calma -- -- 0 922.6 0.8 99
2020-03-23 06:00:00 1.8 0 Calma 8 Sudeste 0 922.4 0.5 99
2020-03-23 05:00:00 1.1 0 Calma 5 Sur 0 921.9 -0.1 98
2020-03-23 04:00:00 2.1 2 Sur 13 Sur 0 921.8 -0.4 98
2020-03-23 03:00:00 2.5 0 Calma 8 Norte 0 921.9 -0.5 98
2020-03-23 02:00:00 3.6 0 Calma 5 Noroeste 0 922 -0.1 97
2020-03-23 01:00:00 4.6 0 Calma 9 Sur 0 922.2 0.4 96
2020-03-23 00:00:00 5.7 5 Sur 11 Nordeste 0 922.4 0.9 95
2020-03-22 23:00:00 5.4 10 Norte 11 Norte 0 922.1 1.5 95
2020-03-22 22:00:00 7.5 6 Este 9 Este 0 921.8 1.2 92
2020-03-22 21:00:00 8.2 0 Calma 15 Sur 0 921.5 1.7 89
2020-03-22 20:00:00 9 11 Este 33 Este 0.4 920.6 1.1 86
2020-03-22 19:00:00 10.2 26 Este 42 Este 0 920.6 0.9 77
2020-03-22 18:00:00 13.1 14 Norte 26 Nordeste 0 919.8 -0.2 63
2020-03-22 17:00:00 13.6 10 Este 24 Nordeste 0 919.5 -1.2 62
2020-03-22 16:00:00 12.2 12 Nordeste 24 Nordeste 0 919.7 -1.4 69
2020-03-22 15:00:00 12.4 9 Nordeste 22 Nordeste 0 920 -1.3 69
2020-03-22 14:00:00 11.1 10 Este 18 Nordeste 0 920.7 -0.6 77
2020-03-22 13:00:00 9 11 Nordeste 17 Este 0 921.1 0.4 83
2020-03-22 12:00:00 8.2 8 Este 21 Este 0 921.3 1 86
2020-03-22 11:00:00 8.2 17 Este 24 Este 0 921.3 1.5 86
2020-03-22 10:00:00 7.6 0 Calma 11 Este 0 920.7 1.1 89
2020-03-22 09:00:00 6.1 9 Este 13 Este 0 920.3 1.1 96
2020-03-22 08:00:00 5.6 8 Este 13 Nordeste 0 919.8 0.8 96
2020-03-22 07:00:00 6.1 7 Nordeste 11 Nordeste 0 919.6 0.5 95
2020-03-22 06:00:00 5.9 0 Calma 2 Norte 0 919.2 -0.2 95
2020-03-22 05:00:00 5.9 0 Calma 4 Norte 0 919 -0.6 96
2020-03-22 04:00:00 6.6 0 Calma 8 Norte 0 919.1 -0.5 96
2020-03-22 03:00:00 6.6 2 Norte 13 Norte 0 919.4 -0.3 97
2020-03-22 02:00:00 5.7 4 Sudoeste 11 Oeste 0 919.6 -0.1 98
2020-03-22 01:00:00 5.3 0 Calma 9 Norte 0 919.6 0 97
2020-03-22 00:00:00 6.2 5 Noroeste 11 Norte 0 919.7 0.4 96
2020-03-21 23:00:00 7 6 Norte 9 Noroeste 0 919.7 0.8 94
2020-03-21 22:00:00 6.9 6 Oeste 9 Oeste 0 919.6 1.2 96
2020-03-21 21:00:00 7 0 Calma 11 Noroeste 0 919.3 1 93
2020-03-21 20:00:00 7.5 7 Noroeste 11 Noroeste 0 918.9 0.5 91
2020-03-21 19:00:00 8.5 10 Noroeste 13 Norte 0 918.4 -0.4 87
2020-03-21 18:00:00 8.6 6 Noroeste 13 Noroeste 0 918.3 -0.7 87
2020-03-21 17:00:00 8.4 9 Noroeste 13 Noroeste 0.4 918.4 -1 88
2020-03-21 16:00:00 8.4 7 Oeste 13 Oeste 0.5 918.8 -1.1 85
2020-03-21 15:00:00 9.3 6 Sudoeste 17 Oeste 0 919 -1.2 78
2020-03-21 14:00:00 9.5 9 Noroeste 18 Oeste 0 919.4 -0.4 81
2020-03-21 13:00:00 7.8 13 Oeste 18 Oeste 1.3 919.9 0.4 89
2020-03-21 12:00:00 7.7 14 Oeste 22 Oeste 0.2 920.2 1.3 88
2020-03-21 11:00:00 7.7 17 Oeste 22 Oeste 0.4 919.8 1.3 90
2020-03-21 10:00:00 8.7 17 Sudeste 24 Sudeste 0.4 919.5 1 88
2020-03-21 09:00:00 8.2 0 Calma 21 Sur 0 918.9 0.3 86
2020-03-21 08:00:00 8 20 Sur 37 Sur 0 918.5 -0.2 84
2020-03-21 07:00:00 7.9 11 Sur 18 Sur 0 918.5 -0.4 83
2020-03-21 06:00:00 8.2 10 Este 17 Este 0 918.6 -0.5 81
2020-03-21 05:00:00 8.2 7 Este 18 Sudeste 0 918.7 -0.9 80
2020-03-21 04:00:00 8.7 11 Este 35 Sudeste 0 918.9 -1 79
2020-03-21 03:00:00 8.8 20 Este 33 Sudeste 0 919.1 -1.3 80
2020-03-21 02:00:00 9.5 27 Sudeste 41 Sudeste 0 919.6 -1 78
2020-03-21 01:00:00 9 18 Sudeste 35 Sudeste 0 919.9 -1.2 81
2020-03-21 00:00:00 9.1 24 Sudeste 32 Sudeste 0 920.4 -0.5 80
2020-03-20 23:00:00 9 18 Sudeste 24 Sudeste 0 920.6 -0.7 81
2020-03-20 22:00:00 9.3 14 Sudeste 26 Sudeste 0 921.1 -0.4 81
2020-03-20 21:00:00 9.3 18 Este 30 Sudeste 0 920.9 -0.7 81
2020-03-20 20:00:00 10.1 22 Sudeste 30 Sudeste 0 921.3 -0.6 80
2020-03-20 19:00:00 11.2 12 Este 17 Este 0 921.5 -0.7 80
2020-03-20 18:00:00 11.1 6 Nordeste 13 Norte 0 921.6 -1 80
2020-03-20 17:00:00 10.8 9 Noroeste 21 Noroeste 0 921.9 -0.4 81
2020-03-20 16:00:00 11.1 18 Noroeste 30 Noroeste 0 922.2 -0.4 80
2020-03-20 15:00:00 11.2 23 Oeste 30 Oeste 0 922.6 0 83
2020-03-20 14:00:00 13.6 17 Oeste 24 Noroeste 0 922.3 -0.4 77
2020-03-20 13:00:00 13 19 Oeste 28 Oeste 0.2 922.6 0 77
2020-03-20 12:00:00 13.4 0 Calma 9 Sur 0 922.6 0.2 68
2020-03-20 11:00:00 11.8 2 Sur 11 Sur 0 922.7 0.4 77
2020-03-20 10:00:00 10.3 5 Sudeste 11 Este 0 922.6 0.4 81
2020-03-20 09:00:00 7.8 0 Calma -- -- 0 922.4 0.3 92
2020-03-20 08:00:00 5.9 0 Calma 2 Sur 0 922.3 -0.2 95
2020-03-20 07:00:00 6.5 0 Calma 8 Nordeste 0 922.2 -0.5 93
2020-03-20 06:00:00 6.8 0 Calma 9 Este 0 922.1 -1 91
2020-03-20 05:00:00 7.3 7 Este 11 Sudeste 0 922.5 -0.8 92
2020-03-20 04:00:00 7 10 Este 11 Este 0 922.7 -0.8 95
2020-03-20 03:00:00 7.7 7 Sudeste 11 Sur 0 923.1 -0.8 93
2020-03-20 02:00:00 8.3 3 Sur 13 Sur 0 923.3 -0.9 92
2020-03-20 01:00:00 8.6 7 Sur 9 Sur 0 923.5 -0.6 93
2020-03-20 00:00:00 9 0 Calma -- -- 0 923.9 -0.2 92
2020-03-19 23:00:00 9.3 0 Calma 9 Este 0 924.2 0.2 88
2020-03-19 22:00:00 9.9 8 Este 9 Este 0 924.1 0 86
2020-03-19 21:00:00 10.7 0 Calma 11 Este 0 924.1 -0.1 85
2020-03-19 20:00:00 11.5 5 Este 13 Este 0 924 -0.8 83
2020-03-19 19:00:00 12.5 11 Este 15 Este 0 924.1 -1.2 79
2020-03-19 18:00:00 13.4 7 Este 17 Este 0 924.2 -1.6 74
2020-03-19 17:00:00 14.1 10 Este 13 Este 0 924.8 -1.8 66
2020-03-19 16:00:00 14.6 6 Nordeste 11 Este 0 925.3 -1.8 66
2020-03-19 15:00:00 15 2 Sur 9 Sudeste 0 925.8 -1.8 62
2020-03-19 14:00:00 14.8 8 Sudeste 15 Sur 0 926.6 -1.5 62
2020-03-19 13:00:00 16.3 5 Sur 13 Sur 0 927.1 -1.1 59
2020-03-19 12:00:00 14.5 4 Este 9 Este 0 927.6 -0.5 71
2020-03-19 11:00:00 11.2 0 Calma 4 Este 0 928.1 0.1 82
2020-03-19 10:00:00 8.6 0 Calma -- -- 0 928.2 0.2 91
2020-03-19 09:00:00 6 0 Calma -- -- 0 928.1 0.1 97
2020-03-19 08:00:00 4.9 0 Calma -- -- 0 928 0 96
2020-03-19 07:00:00 5.6 0 Calma -- -- 0 928 -0.2 95
2020-03-19 06:00:00 5.7 0 Calma 5 Este 0 928 -0.9 95
2020-03-19 05:00:00 6.4 6 Este 9 Este 0 928 -1.5 92
2020-03-19 04:00:00 6.7 0 Calma -- -- 0 928.2 -1.6 92
2020-03-19 03:00:00 6.8 0 Calma -- -- 0 928.9 -1.2 90
2020-03-19 02:00:00 7.5 0 Calma 5 Sur 0 929.5 -1.1 89
2020-03-19 01:00:00 7.7 3 Sudeste 17 Este 0 929.8 -1 85
2020-03-19 00:00:00 8.4 10 Este 13 Este 0 930.1 -0.8 86
2020-03-18 23:00:00 8.9 11 Este 13 Este 0 930.6 -0.1 86
2020-03-18 22:00:00 10.4 0 Calma 11 Sudeste 0 930.8 0.3 83
2020-03-18 21:00:00 11.9 5 Sudeste 13 Sudeste 0 930.9 0.6 82
2020-03-18 20:00:00 13 12 Este 18 Este 0 930.7 0.4 83
2020-03-18 19:00:00 14.6 12 Este 22 Este 0 930.5 -0.1 78
2020-03-18 18:00:00 15.8 17 Este 28 Este 0 930.3 -0.6 71
2020-03-18 17:00:00 16.4 19 Este 30 Este 0 930.3 -1.2 67
2020-03-18 16:00:00 16.7 18 Nordeste 28 Este 0 930.6 -1.5 66
2020-03-18 15:00:00 16 21 Este 30 Nordeste 0 930.9 -2 69
2020-03-18 14:00:00 16.3 23 Nordeste 33 Este 0 931.5 -1.8 69
2020-03-18 13:00:00 14.3 21 Este 28 Este 0 932.1 -1.2 72
2020-03-18 12:00:00 12.7 18 Este 26 Este 0 932.9 -0.2 78
2020-03-18 11:00:00 10.2 10 Este 18 Este 0 933.3 0.3 85
2020-03-18 10:00:00 8.2 18 Este 28 Este 0 933.3 0.1 93
2020-03-18 09:00:00 6.3 17 Este 22 Este 0 933.1 0.1 96
2020-03-18 08:00:00 5.8 13 Este 21 Este 0 933 -0.1 96
2020-03-18 07:00:00 5.7 10 Este 21 Este 0 933.2 0.2 95
2020-03-18 06:00:00 5.8 18 Este 24 Este 0 933 0 96
2020-03-18 05:00:00 5.6 9 Este 18 Este 0 933.1 -0.2 95
2020-03-18 04:00:00 5.9 0 Calma 9 Oeste 0 933 -0.9 94
2020-03-18 03:00:00 5.5 8 Norte 13 Norte 0 933 -1.1 94
2020-03-18 02:00:00 5.4 4 Este 17 Este 0 933.3 -0.7 94
2020-03-18 01:00:00 6.3 6 Este 17 Sudeste 0 933.9 0.3 91
2020-03-18 00:00:00 7.4 13 Este 22 Este 0 934.1 1 88
2020-03-17 23:00:00 8.2 15 Este 26 Nordeste 0 934 1.6 86
2020-03-17 22:00:00 9.4 18 Este 28 Este 0 933.6 2 82
2020-03-17 21:00:00 9.8 15 Este 21 Este 0 933.1 1.9 83
2020-03-17 20:00:00 11 16 Este 24 Este 0 932.4 1.4 81
2020-03-17 19:00:00 13.8 18 Este 30 Este 0 931.6 0.6 70
2020-03-17 18:00:00 15.2 23 Este 41 Este 0 931.2 0.1 62
2020-03-17 17:00:00 15.6 27 Este 39 Este 0 931 -0.6 61
2020-03-17 16:00:00 13.3 23 Este 33 Este 0 931 -0.8 70
2020-03-17 15:00:00 12.3 18 Este 28 Este 0 931.1 -0.6 77
2020-03-17 14:00:00 10.3 13 Este 18 Este 0 931.6 -0.2 81
2020-03-17 13:00:00 9.3 12 Este 18 Este 0 931.8 0.9 79
2020-03-17 12:00:00 8.6 12 Este 17 Este 0 931.7 1.6 85
2020-03-17 11:00:00 6 8 Sudeste 21 Sudeste 0 931.8 1.7 94
2020-03-17 10:00:00 6.7 13 Este 32 Este 0 930.9 1.6 93
2020-03-17 09:00:00 6.5 19 Nordeste 28 Nordeste 0 930.1 1.7 93
2020-03-17 08:00:00 5 17 Este 26 Este 0 930.1 2.5 97
2020-03-17 07:00:00 4.5 14 Este 18 Este 0 929.3 1.9 96
2020-03-17 06:00:00 4.2 15 Este 24 Este 0 928.4 1.1 96
2020-03-17 05:00:00 4.1 12 Este 32 Este 0 927.6 0.4 94
2020-03-17 04:00:00 4.4 21 Nordeste 37 Nordeste 0 927.4 0 88
2020-03-17 03:00:00 4.7 27 Nordeste 39 Este 0 927.3 0.3 93
2020-03-17 02:00:00 3.9 17 Este 26 Nordeste 0.4 927.2 1.1 98
2020-03-17 01:00:00 2.8 6 Este 17 Sudeste 1.2 927.4 2.1 97
2020-03-17 00:00:00 3 13 Sudeste 42 Nordeste 2.3 927 2.4 96
2020-03-16 23:00:00 4.3 30 Nordeste 59 Nordeste 1 926.1 1.8 98
2020-03-16 22:00:00 4.2 40 Nordeste 61 Nordeste 1.4 925.3 1.6 98
2020-03-16 21:00:00 4.1 43 Nordeste 61 Nordeste 1 924.6 1.5 96
2020-03-16 20:00:00 4.2 36 Nordeste 65 Nordeste 0.9 924.3 1.3 95
2020-03-16 19:00:00 4.1 45 Nordeste 65 Nordeste 0.7 923.7 0.8 95
2020-03-16 18:00:00 4.1 34 Nordeste 59 Nordeste 0.9 923.1 0.1 97
2020-03-16 17:00:00 3.5 45 Nordeste 67 Nordeste 2.9 923 -0.1 95
2020-03-16 16:00:00 3.3 32 Nordeste 54 Norte 2.1 922.9 -0.5 96
2020-03-16 15:00:00 2.7 26 Norte 46 Norte 0.8 923 -0.5 93
2020-03-16 14:00:00 2.3 23 Norte 41 Norte 0.6 923.1 0 96
2020-03-16 13:00:00 1.2 23 Norte 35 Norte 1.4 923.4 0.9 98
2020-03-16 12:00:00 0.7 18 Norte 26 Norte 1.8 923.5 1.7 98
2020-03-16 11:00:00 0.5 12 Norte 22 Norte 2 923.1 2.1 98
2020-03-16 10:00:00 0.3 14 Norte 28 Norte 1.3 922.5 2 98
2020-03-16 09:00:00 0.1 19 Norte 30 Norte 0.6 921.8 1.6 98
2020-03-16 08:00:00 0.1 22 Norte 33 Norte 0.6 921 1 98
2020-03-16 07:00:00 0.2 19 Noroeste 28 Norte 0.3 920.5 0.4 98
2020-03-16 06:00:00 0.2 14 Noroeste 26 Noroeste 0.3 920.2 -0.4 97
2020-03-16 05:00:00 0.6 18 Noroeste 26 Noroeste 0.2 920 -0.9 96
2020-03-16 04:00:00 1.5 19 Noroeste 30 Noroeste 0 920.1 -1.5 94
2020-03-16 03:00:00 1.9 16 Noroeste 22 Oeste 0 920.6 -1.2 95
2020-03-16 02:00:00 1.8 16 Noroeste 26 Oeste 0.2 920.9 -0.7 94
2020-03-16 01:00:00 1.6 18 Noroeste 32 Noroeste 0.6 921.6 0.4 93
2020-03-16 00:00:00 2.6 23 Oeste 39 Oeste 0.3 921.8 1.6 88
2020-03-15 23:00:00 3.6 24 Oeste 42 Oeste 0.1 921.6 2.6 91
2020-03-15 22:00:00 4.2 33 Oeste 52 Noroeste 0 921.2 2.3 84
2020-03-15 21:00:00 6.9 35 Noroeste 52 Noroeste 0 920.2 1.1 78
2020-03-15 20:00:00 10.2 19 Oeste 39 Oeste 0 919 -0.4 63
2020-03-15 19:00:00 11.3 26 Oeste 46 Oeste 0 918.9 -1.2 57
2020-03-15 18:00:00 12.3 34 Oeste 48 Oeste 0 919.1 -0.5 64
2020-03-15 17:00:00 14.8 32 Oeste 46 Oeste 0 919.4 -1 61
2020-03-15 16:00:00 14.8 33 Oeste 63 Oeste 0 920.1 -1.4 61
2020-03-15 15:00:00 18.4 39 Sudoeste 58 Sudoeste 0 919.6 -2.5 45
2020-03-15 14:00:00 18.8 40 Sudoeste 55 Sudoeste 0 920.4 -2.7 44
2020-03-15 13:00:00 18.3 41 Sudoeste 54 Sudoeste 0 921.5 -2.2 43
2020-03-15 12:00:00 18.1 35 Sudoeste 48 Sudoeste 0 922.1 -1.6 47
2020-03-15 11:00:00 13.8 2 Oeste 5 Sudoeste 0 923.1 -0.5 53
2020-03-15 10:00:00 8.1 0 Calma 4 Sudeste 0 923.7 0 70
2020-03-15 09:00:00 2.8 0 Calma -- -- 0 923.7 -0.4 86
2020-03-15 08:00:00 -1.4 0 Calma -- -- 0 923.6 -0.8 94
2020-03-15 07:00:00 -2 0 Calma 5 Sudeste 0 923.7 -1.2 90
2020-03-15 06:00:00 -1.9 3 Este 8 Este 0 924.1 -1.6 92
2020-03-15 05:00:00 -1.4 4 Sudeste 8 Sur 0 924.4 -1.8 90
2020-03-15 04:00:00 -0.8 0 Calma -- -- 0 924.9 -1.8 88
2020-03-15 03:00:00 -0.7 0 Calma 5 Nordeste 0 925.7 -1.4 90
2020-03-15 02:00:00 0.8 6 Sudeste 8 Sudeste 0 926.2 -1.2 86
2020-03-15 01:00:00 1.4 0 Calma -- -- 0 926.7 -0.6 83
2020-03-15 00:00:00 2.3 5 Nordeste 8 Nordeste 0 927.1 -0.2 79
2020-03-14 23:00:00 3.5 0 Calma 5 Sur 0 927.4 0.3 69
2020-03-14 22:00:00 6 0 Calma 4 Sur 0 927.3 0.4 67
2020-03-14 21:00:00 7.6 0 Calma 9 Nordeste 0 927.3 0.5 57
2020-03-14 20:00:00 12.2 7 Nordeste 11 Nordeste 0 927.1 0.1 42
2020-03-14 19:00:00 15.4 9 Nordeste 15 Norte 0 926.9 -0.4 31
2020-03-14 18:00:00 17.5 11 Norte 22 Norte 0 926.8 -1.2 26
2020-03-14 17:00:00 18.4 8 Nordeste 17 Este 0 927 -1.9 25
2020-03-14 16:00:00 18.1 9 Nordeste 18 Este 0 927.3 -2.2 25
2020-03-14 15:00:00 17.6 12 Este 22 Este 0 928 -1.9 28
2020-03-14 14:00:00 16.2 15 Este 26 Este 0 928.9 -1.3 34
2020-03-14 13:00:00 14.4 14 Este 24 Este 0 929.5 -0.6 39
2020-03-14 12:00:00 13 15 Este 22 Este 0 929.9 -0.1 45
2020-03-14 11:00:00 10 6 Nordeste 13 Nordeste 0 930.2 0.5 74
2020-03-14 10:00:00 6 0 Calma 8 Este 0 930.1 0.7 87
2020-03-14 09:00:00 1.5 0 Calma -- -- 0 930 0.9 98
2020-03-14 08:00:00 -1 0 Calma -- -- 0 929.7 0.8 98
2020-03-14 07:00:00 -0.9 0 Calma -- -- 0 929.4 0.5 98
2020-03-14 06:00:00 -0.3 0 Calma -- -- 0 929.1 -0.2 97
2020-03-14 05:00:00 1.2 0 Calma 4 Sur 0 928.9 -0.7 97
2020-03-14 04:00:00 1.2 4 Norte 8 Sudeste 0 928.9 -0.6 94
2020-03-14 03:00:00 2.8 0 Calma 9 Este 0 929.3 -0.3 93
2020-03-14 02:00:00 3.6 8 Este 9 Sudeste 0 929.6 0.3 91
2020-03-14 01:00:00 3.6 7 Nordeste 18 Este 0 929.5 0.9 91
2020-03-14 00:00:00 6.2 5 Sudeste 17 Nordeste 0 929.6 1.6 85
2020-03-13 23:00:00 7.9 10 Nordeste 24 Nordeste 0 929.3 1.9 81
2020-03-13 22:00:00 9.3 15 Nordeste 26 Nordeste 0 928.6 1.5 81
2020-03-13 21:00:00 9 14 Norte 18 Norte 0 928 1.3 83
2020-03-13 20:00:00 11.3 11 Norte 18 Norte 0 927.4 0.9 76
2020-03-13 19:00:00 14.1 17 Norte 28 Norte 0 927.1 0.5 66
2020-03-13 18:00:00 15.8 16 Norte 26 Norte 0 926.7 -0.2 63
2020-03-13 17:00:00 16.1 14 Nordeste 24 Nordeste 0 926.5 -1 62
2020-03-13 16:00:00 16 13 Norte 26 Nordeste 0 926.6 -1.6 61
2020-03-13 15:00:00 15.9 12 Nordeste 26 Nordeste 0 926.9 -1.4 62
2020-03-13 14:00:00 14.8 10 Nordeste 28 Nordeste 0 927.5 -1 66
2020-03-13 13:00:00 12.1 13 Este 24 Este 0 928.2 -0.3 74
2020-03-13 12:00:00 9.9 14 Este 22 Este 0 928.3 0 80
2020-03-13 11:00:00 9.3 15 Este 30 Este 0 928.5 0.6 82
2020-03-13 10:00:00 8.7 24 Nordeste 33 Nordeste 0 928.5 0.9 83
2020-03-13 09:00:00 8.3 22 Nordeste 32 Este 0 928.3 1.2 85
2020-03-13 08:00:00 7 13 Nordeste 22 Nordeste 0 927.9 0.8 91
2020-03-13 07:00:00 6.6 14 Nordeste 22 Nordeste 0 927.6 0.5 93
2020-03-13 06:00:00 7.2 13 Nordeste 21 Nordeste 0 927.1 -0.2 92
2020-03-13 05:00:00 7.2 12 Nordeste 24 Nordeste 0 927.1 -0.4 92
2020-03-13 04:00:00 7.9 9 Nordeste 21 Nordeste 0 927.1 -0.5 90
2020-03-13 03:00:00 8.5 16 Este 26 Este 0 927.3 -0.4 89
2020-03-13 02:00:00 9.3 15 Este 24 Este 0 927.5 0.3 87
2020-03-13 01:00:00 9.8 20 Este 28 Este 0 927.6 0.5 85
2020-03-13 00:00:00 11.3 16 Nordeste 24 Nordeste 0 927.7 0.9 83
2020-03-12 23:00:00 12 5 Nordeste 22 Nordeste 0 927.2 0.7 81
2020-03-12 22:00:00 13.3 0 Calma 9 Norte 0 927.1 1 77
2020-03-12 21:00:00 14.4 0 Calma 9 Sudeste 0 926.8 0.9 71
2020-03-12 20:00:00 16.6 3 Este 9 Nordeste 0 926.5 0.8 63
2020-03-12 19:00:00 17.9 4 Este 15 Nordeste 0 926.1 0.1 62
2020-03-12 18:00:00 19.8 12 Nordeste 21 Norte 0 925.9 -0.5 55
2020-03-12 17:00:00 20.5 12 Norte 21 Norte 0 925.7 -1.3 48
2020-03-12 16:00:00 22 14 Noroeste 26 Noroeste 0 926 -1.9 43
2020-03-12 15:00:00 22.5 14 Noroeste 39 Sudoeste 0 926.4 -1.9 43
2020-03-12 14:00:00 23.8 24 Sudoeste 35 Sudoeste 0 927 -1.9 37
2020-03-12 13:00:00 22.9 15 Sur 22 Sudoeste 0 927.9 -1 39
2020-03-12 12:00:00 18.5 2 Sudeste 17 Sur 0 928.3 -0.3 52
2020-03-12 11:00:00 14.3 0 Calma 8 Sur 0 928.9 0.6 68
2020-03-12 10:00:00 10.6 0 Calma 8 Sudeste 0 928.9 0.7 79
2020-03-12 09:00:00 7.4 0 Calma -- -- 0 928.6 0.4 90
2020-03-12 08:00:00 6.1 0 Calma 2 Este 0 928.3 -0.2 92
2020-03-12 07:00:00 6.3 0 Calma 4 Este 0 928.2 -0.8 90
2020-03-12 06:00:00 6.7 0 Calma 5 Este 0 928.2 -1.4 89
2020-03-12 05:00:00 7.9 0 Calma 4 Sudeste 0 928.5 -1.5 86
2020-03-12 04:00:00 8.5 0 Calma 9 Sur 0 929 -1.3 85
2020-03-12 03:00:00 8.9 0 Calma -- -- 0 929.6 -1 83
2020-03-12 02:00:00 10.1 3 Este 8 Este 0 930 -0.9 81
2020-03-12 01:00:00 10.8 3 Sudeste 9 Este 0 930.3 -0.5 78
2020-03-12 00:00:00 12 7 Este 9 Este 0 930.6 -0.1 75
2020-03-11 23:00:00 12.9 4 Sudeste 8 Sur 0 930.9 0.1 70
2020-03-11 22:00:00 14.5 3 Sur 9 Sur 0 930.8 0.1 61
2020-03-11 21:00:00 15.2 8 Sur 17 Sudoeste 0 930.7 0.3 63
2020-03-11 20:00:00 17.7 11 Sudoeste 15 Sudoeste 0 930.8 0.5 51
2020-03-11 19:00:00 20 3 Oeste 11 Oeste 0 930.7 0.1 43
2020-03-11 18:00:00 22.1 5 Norte 21 Noroeste 0 930.4 -0.7 45
2020-03-11 17:00:00 24 12 Noroeste 22 Oeste 0 930.3 -1.4 37
2020-03-11 16:00:00 24.7 10 Oeste 24 Oeste 0 930.6 -1.8 37
2020-03-11 15:00:00 24.2 13 Noroeste 28 Oeste 0 931.1 -1.9 36
2020-03-11 14:00:00 23.2 13 Oeste 22 Oeste 0 931.7 -1.5 39
2020-03-11 13:00:00 21.7 9 Noroeste 18 Noroeste 0 932.4 -0.8 42
2020-03-11 12:00:00 19.8 0 Calma 8 Oeste 0 933 0.1 51
2020-03-11 11:00:00 16.5 0 Calma 9 Sudeste 0 933.2 0.4 62
2020-03-11 10:00:00 11.5 2 Este 5 Este 0 933.2 0.5 75
2020-03-11 09:00:00 6.5 4 Este 8 Este 0 932.9 0.2 91
2020-03-11 08:00:00 2.5 7 Este 9 Este 0 932.8 0.2 94
2020-03-11 07:00:00 2.5 0 Calma 8 Este 0 932.7 -0.3 95
2020-03-11 06:00:00 3.2 0 Calma -- -- 0 932.7 -0.9 92
2020-03-11 05:00:00 4 3 Este 8 Este 0 932.6 -1.4 92
2020-03-11 04:00:00 4.6 0 Calma 5 Este 0 933 -1.3 92
2020-03-11 03:00:00 4.4 0 Calma -- -- 0 933.6 -1 91
2020-03-11 02:00:00 5.3 0 Calma 8 Este 0 934 -0.7 89
2020-03-11 01:00:00 6.7 5 Sudeste 11 Sur 0 934.3 -0.1 83
2020-03-11 00:00:00 7.8 0 Calma -- -- 0 934.6 0.6 84
2020-03-10 23:00:00 9.4 0 Calma 5 Sudoeste 0 934.7 1 81
2020-03-10 22:00:00 9.7 7 Sudoeste 11 Oeste 0 934.4 1.1 80
2020-03-10 21:00:00 12.5 8 Sudoeste 11 Sudoeste 0 934 0.9 72
2020-03-10 20:00:00 15.4 8 Noroeste 13 Noroeste 0 933.7 0.5 63
2020-03-10 19:00:00 19.1 12 Noroeste 21 Oeste 0 933.3 -0.2 52
2020-03-10 18:00:00 21.7 18 Oeste 30 Oeste 0 933.1 -0.8 43
2020-03-10 17:00:00 22.4 22 Oeste 32 Oeste 0 933.2 -1.2 39
2020-03-10 16:00:00 22.6 22 Oeste 33 Oeste 0 933.5 -1.6 36
2020-03-10 15:00:00 21.6 18 Oeste 26 Oeste 0 933.9 -1.7 42
2020-03-10 14:00:00 20.6 5 Sudoeste 15 Oeste 0 934.4 -1.3 44
2020-03-10 13:00:00 18.6 6 Sudoeste 17 Oeste 0 935.1 -0.6 47
2020-03-10 12:00:00 14.6 0 Calma 9 Oeste 0 935.6 0.5 58
2020-03-10 11:00:00 10.6 0 Calma 4 Oeste 0 935.7 0.8 69
2020-03-10 10:00:00 7.3 0 Calma 5 Noroeste 0 935.7 0.6 79
2020-03-10 09:00:00 5.2 0 Calma 11 Sudeste 0 935.1 0.1 86
2020-03-10 08:00:00 2.8 6 Sudeste 11 Sur 0 934.9 0 90
2020-03-10 07:00:00 1.6 2 Sur 9 Sudeste 0 935.1 0.4 93
2020-03-10 06:00:00 1.7 6 Sur 8 Sur 0 935 -0.1 93
2020-03-10 05:00:00 1.5 0 Calma 9 Sur 0 934.9 -0.4 91
2020-03-10 04:00:00 1.8 4 Sur 5 Sur 0 934.7 -1 91
2020-03-10 03:00:00 2.4 0 Calma 5 Sudeste 0 935.1 -0.8 89
2020-03-10 02:00:00 2.6 0 Calma 5 Sur 0 935.3 -0.5 88
2020-03-10 01:00:00 3.9 5 Sur 5 Sudeste 0 935.7 0.1 84
2020-03-10 00:00:00 4.2 0 Calma 9 Sudoeste 0 935.9 0.9 84
2020-03-09 23:00:00 6.2 9 Sur 11 Sur 0 935.8 1 78
2020-03-09 22:00:00 6.3 0 Calma 9 Sur 0 935.6 1.1 74
2020-03-09 21:00:00 8.6 8 Sudoeste 9 Sur 0 935 0.6 64
2020-03-09 20:00:00 10 5 Noroeste 11 Noroeste 0 934.8 0.7 60
2020-03-09 19:00:00 12.7 7 Noroeste 17 Noroeste 0 934.5 0 49
2020-03-09 18:00:00 14.6 10 Noroeste 21 Noroeste 0 934.4 -1 45
2020-03-09 17:00:00 14.8 9 Norte 24 Noroeste 0 934.1 -1.5 41
2020-03-09 16:00:00 14.7 6 Oeste 21 Norte 0 934.5 -1.6 45
2020-03-09 15:00:00 13.9 11 Noroeste 24 Norte 0 935.4 -1.2 48
2020-03-09 14:00:00 12.4 10 Noroeste 21 Noroeste 0 935.6 -0.7 56
2020-03-09 13:00:00 10.6 5 Oeste 15 Oeste 0 936.1 0 64
2020-03-09 12:00:00 9.1 4 Noroeste 13 Norte 0 936.6 0.7 69
2020-03-09 11:00:00 7.7 8 Oeste 15 Oeste 0 936.3 0.9 79
2020-03-09 10:00:00 5.7 4 Oeste 15 Sudoeste 0 936.1 1.5 91
2020-03-09 09:00:00 2.2 0 Calma 8 Oeste 0 935.9 1.1 98
2020-03-09 08:00:00 -0.3 3 Oeste 11 Oeste 0 935.4 0.4 97
2020-03-09 07:00:00 0.8 10 Oeste 15 Sudoeste 0 934.6 -0.2 97
2020-03-09 06:00:00 1.5 11 Sudoeste 15 Sudoeste 0 934.8 -0.3 97
2020-03-09 05:00:00 1 7 Sur 13 Sudoeste 0 935 -0.3 96
2020-03-09 04:00:00 2.5 7 Oeste 18 Oeste 0 934.8 -0.1 96
2020-03-09 03:00:00 3.5 15 Oeste 18 Oeste 0 935.1 0.3 97
2020-03-09 02:00:00 4.9 6 Oeste 18 Oeste 0 935.3 1 95
2020-03-09 01:00:00 5.7 15 Oeste 22 Oeste 0 934.9 0.8 95
2020-03-09 00:00:00 6.7 12 Oeste 24 Oeste 0 934.8 0.7 94